Time;durP1;ratioP1;P1;durP2;ratioP2;P2;SDS_P1;SDS_P2;PMS_P1;PMS_P2;Temp;Humidity;BMP_temperature;BMP_pressure;BME280_temperature;BME280_humidity;BME280_pressure;Samples;Min_cycle;Max_cycle;Signal;HPM_P1;HPM_P2
2023/09/27 00:00:08;;;;;;;22.60;18.10;;;17.30;99.90;;;;;;5071404;28;20181;-69
2023/09/27 00:02:34;;;;;;;24.43;19.47;;;17.30;99.90;;;;;;5071625;28;20446;-69
2023/09/27 00:05:00;;;;;;;21.57;18.70;;;17.30;99.90;;;;;;5071422;28;20952;-69
2023/09/27 00:07:26;;;;;;;25.50;20.60;;;17.20;99.90;;;;;;5071535;28;20198;-69
2023/09/27 00:09:52;;;;;;;23.40;19.07;;;17.20;99.90;;;;;;5063057;28;20955;-69
2023/09/27 00:12:18;;;;;;;26.07;18.40;;;17.20;99.90;;;;;;5051179;28;20458;-69
2023/09/27 00:14:44;;;;;;;22.80;20.23;;;17.20;99.90;;;;;;5051380;28;20170;-73
2023/09/27 00:17:10;;;;;;;19.30;17.10;;;17.20;99.90;;;;;;5051628;28;20430;-69
2023/09/27 00:19:36;;;;;;;20.03;17.30;;;17.20;99.90;;;;;;5051450;28;20185;-69
2023/09/27 00:22:02;;;;;;;21.23;18.60;;;17.10;99.90;;;;;;5051381;28;20440;-69
2023/09/27 00:24:28;;;;;;;21.07;16.47;;;17.10;99.90;;;;;;5051121;28;20177;-69
2023/09/27 00:26:54;;;;;;;24.43;17.43;;;17.00;99.90;;;;;;5051190;28;20186;-69
2023/09/27 00:29:19;;;;;;;21.50;17.87;;;17.00;99.90;;;;;;5050965;28;20169;-69
2023/09/27 00:31:45;;;;;;;23.20;19.03;;;17.00;99.90;;;;;;5051431;28;20446;-69
2023/09/27 00:34:11;;;;;;;23.03;17.63;;;17.00;99.90;;;;;;5050888;28;20167;-69
2023/09/27 00:36:36;;;;;;;24.57;18.17;;;16.90;99.90;;;;;;5051144;28;20209;-69
2023/09/27 00:39:03;;;;;;;23.23;17.60;;;16.90;99.90;;;;;;5051126;28;20493;-69
2023/09/27 00:41:29;;;;;;;22.70;19.70;;;16.90;99.90;;;;;;5054656;28;20191;-69
2023/09/27 00:43:55;;;;;;;23.27;19.93;;;16.90;99.90;;;;;;5055167;28;20415;-69
2023/09/27 00:46:22;;;;;;;24.07;19.33;;;16.90;99.90;;;;;;5054770;28;20991;-70
2023/09/27 00:48:48;;;;;;;22.03;18.80;;;16.90;99.90;;;;;;5056088;28;20185;-69
2023/09/27 00:51:14;;;;;;;21.90;19.63;;;16.80;99.90;;;;;;5054506;28;20436;-69
2023/09/27 00:53:40;;;;;;;23.13;18.10;;;16.80;99.90;;;;;;5054626;28;20223;-69
2023/09/27 00:56:07;;;;;;;23.57;18.90;;;16.80;99.90;;;;;;5054583;28;20504;-69
2023/09/27 00:58:34;;;;;;;22.83;19.07;;;16.80;99.90;;;;;;5054597;28;20410;-69
2023/09/27 01:01:00;;;;;;;22.03;18.43;;;16.70;99.90;;;;;;5054487;28;20865;-69
2023/09/27 01:03:26;;;;;;;26.13;18.10;;;16.70;99.90;;;;;;5054584;28;20421;-69
2023/09/27 01:05:52;;;;;;;22.87;18.70;;;16.70;99.90;;;;;;5054373;28;20601;-69
2023/09/27 01:08:18;;;;;;;23.87;19.80;;;16.70;99.90;;;;;;5054438;28;20399;-68
2023/09/27 01:10:45;;;;;;;21.47;18.57;;;16.70;99.90;;;;;;5054161;28;20425;-69
2023/09/27 01:13:11;;;;;;;23.07;20.67;;;16.70;99.90;;;;;;5054083;28;20607;-68
2023/09/27 01:15:37;;;;;;;25.43;19.03;;;16.70;99.90;;;;;;5054537;28;20504;-69
2023/09/27 01:18:02;;;;;;;23.63;19.33;;;16.70;99.90;;;;;;5054430;28;20209;-69
2023/09/27 01:20:32;;;;;;;25.30;20.10;;;16.60;99.90;;;;;;5053437;28;20197;-68
2023/09/27 01:23:02;;;;;;;22.97;18.27;;;16.60;99.90;;;;;;5053909;28;20202;-69
2023/09/27 01:25:29;;;;;;;22.97;19.30;;;16.60;99.90;;;;;;5053908;28;20464;-69
2023/09/27 01:27:59;;;;;;;23.20;20.80;;;16.60;99.90;;;;;;5053906;28;20426;-69
2023/09/27 01:30:25;;;;;;;21.80;18.90;;;16.50;99.90;;;;;;5053725;28;20395;-69
2023/09/27 01:32:51;;;;;;;20.60;17.27;;;16.50;99.90;;;;;;5053618;28;20421;-69
2023/09/27 01:35:17;;;;;;;20.83;17.23;;;16.50;99.90;;;;;;5053336;28;20209;-69
2023/09/27 01:37:42;;;;;;;25.90;19.13;;;16.50;99.90;;;;;;5053500;28;20448;-70
2023/09/27 01:40:16;;;;;;;28.77;20.97;;;16.40;99.90;;;;;;5053305;28;20181;-69
2023/09/27 01:42:45;;;;;;;21.30;19.00;;;16.50;99.90;;;;;;5053376;28;20187;-69
2023/09/27 01:45:14;;;;;;;22.23;19.80;;;16.40;99.90;;;;;;5053204;28;20449;-69
2023/09/27 01:47:40;;;;;;;26.33;19.30;;;16.40;99.90;;;;;;5053366;28;20406;-69
2023/09/27 01:50:09;;;;;;;25.63;19.63;;;16.40;99.90;;;;;;5053157;28;20832;-69
2023/09/27 01:52:34;;;;;;;27.83;21.53;;;16.40;99.90;;;;;;5054211;28;20424;-69
2023/09/27 01:55:00;;;;;;;23.50;20.57;;;16.40;99.90;;;;;;5053544;28;20418;-69
2023/09/27 01:57:26;;;;;;;24.63;21.83;;;16.40;99.90;;;;;;5035671;28;20181;-69
2023/09/27 01:59:51;;;;;;;28.83;20.70;;;16.40;99.90;;;;;;5053367;28;20182;-69
2023/09/27 02:02:17;;;;;;;25.77;21.73;;;16.30;99.90;;;;;;5052905;28;20615;-69
2023/09/27 02:04:42;;;;;;;26.00;19.80;;;16.30;99.90;;;;;;5053150;28;20177;-69
2023/09/27 02:07:08;;;;;;;25.00;20.23;;;16.30;99.90;;;;;;5053215;28;20188;-69
2023/09/27 02:09:33;;;;;;;26.50;20.00;;;16.30;99.90;;;;;;5053239;28;20633;-69
2023/09/27 02:11:59;;;;;;;28.67;20.73;;;16.30;99.90;;;;;;5052993;28;20312;-69
2023/09/27 02:14:24;;;;;;;24.03;20.27;;;16.20;99.90;;;;;;5053432;28;20168;-69
2023/09/27 02:16:51;;;;;;;23.40;20.37;;;16.20;99.90;;;;;;5053165;28;20193;-69
2023/09/27 02:19:16;;;;;;;25.90;21.07;;;16.20;99.90;;;;;;5053261;28;20490;-69
2023/09/27 02:21:42;;;;;;;26.53;20.87;;;16.20;99.90;;;;;;5052803;28;20434;-69
2023/09/27 02:24:09;;;;;;;26.37;22.17;;;16.20;99.90;;;;;;5052883;28;20168;-69
2023/09/27 02:26:36;;;;;;;26.27;21.10;;;16.20;99.90;;;;;;5052786;28;20612;-69
2023/09/27 02:29:02;;;;;;;25.00;20.67;;;16.20;99.90;;;;;;5053724;28;20419;-69
2023/09/27 02:31:27;;;;;;;40.43;24.07;;;16.20;99.90;;;;;;5052379;28;20919;-69
2023/09/27 02:33:53;;;;;;;25.17;20.97;;;16.20;99.90;;;;;;5052550;28;20417;-69
2023/09/27 02:36:18;;;;;;;26.23;23.17;;;16.10;99.90;;;;;;5052474;28;20183;-69
2023/09/27 02:38:44;;;;;;;25.63;20.97;;;16.10;99.90;;;;;;5053062;28;20244;-69
2023/09/27 02:41:09;;;;;;;26.90;21.07;;;16.00;99.90;;;;;;5052567;28;20584;-69
2023/09/27 02:43:35;;;;;;;23.27;19.30;;;16.00;99.90;;;;;;5052323;28;20209;-69
2023/09/27 02:46:01;;;;;;;22.70;20.20;;;16.00;99.90;;;;;;5052169;28;20197;-69
2023/09/27 02:48:28;;;;;;;26.73;21.27;;;16.00;99.90;;;;;;5052410;28;20168;-69
2023/09/27 02:50:55;;;;;;;23.50;20.07;;;15.90;99.90;;;;;;5052192;28;20197;-69
2023/09/27 02:53:21;;;;;;;23.23;20.30;;;15.90;99.90;;;;;;5051989;28;20733;-68
2023/09/27 02:55:47;;;;;;;25.07;19.47;;;15.90;99.90;;;;;;5051898;28;20411;-69
2023/09/27 02:58:12;;;;;;;26.77;21.60;;;15.90;99.90;;;;;;5052012;28;20448;-69
2023/09/27 03:00:38;;;;;;;25.70;21.27;;;15.90;99.90;;;;;;5051524;28;20545;-69
2023/09/27 03:03:04;;;;;;;25.87;21.23;;;15.90;99.90;;;;;;5050956;28;20190;-69
2023/09/27 03:05:35;;;;;;;26.90;22.30;;;15.80;99.90;;;;;;5051817;28;20205;-69
2023/09/27 03:08:01;;;;;;;22.93;20.37;;;15.80;99.90;;;;;;5051822;28;20426;-69
2023/09/27 03:10:26;;;;;;;24.73;21.60;;;15.80;99.90;;;;;;5051778;28;20431;-69
2023/09/27 03:12:54;;;;;;;27.10;21.20;;;15.80;99.90;;;;;;5052248;28;20182;-68
2023/09/27 03:15:19;;;;;;;31.80;21.57;;;15.70;99.90;;;;;;5051479;28;20187;-68
2023/09/27 03:17:47;;;;;;;26.37;21.63;;;15.70;99.90;;;;;;5051706;28;20502;-68
2023/09/27 03:20:16;;;;;;;22.90;19.67;;;15.70;99.90;;;;;;5051344;28;20177;-68
2023/09/27 03:22:48;;;;;;;24.33;21.40;;;15.70;99.90;;;;;;5051343;28;20980;-68
2023/09/27 03:25:17;;;;;;;28.30;22.73;;;15.70;99.90;;;;;;5051128;28;20458;-68
2023/09/27 03:27:43;;;;;;;30.43;22.67;;;15.70;99.90;;;;;;5051122;28;20410;-68
2023/09/27 03:30:09;;;;;;;26.70;20.83;;;15.70;99.90;;;;;;5051048;28;20412;-68
2023/09/27 03:32:34;;;;;;;27.30;21.90;;;15.70;99.90;;;;;;5051397;28;20427;-68
2023/09/27 03:35:00;;;;;;;25.50;21.77;;;15.80;99.90;;;;;;5051402;28;20541;-69
2023/09/27 03:37:25;;;;;;;28.10;21.63;;;15.70;99.90;;;;;;5051602;28;20173;-72
2023/09/27 03:39:55;;;;;;;25.13;21.37;;;15.70;99.90;;;;;;5051608;28;20179;-68
2023/09/27 03:42:21;;;;;;;25.43;21.57;;;15.80;99.90;;;;;;5051009;28;20200;-68
2023/09/27 03:44:48;;;;;;;28.60;23.30;;;15.80;99.90;;;;;;5051011;28;20709;-69
2023/09/27 03:47:14;;;;;;;27.03;22.87;;;15.80;99.90;;;;;;5051153;28;20418;-69
2023/09/27 03:49:41;;;;;;;27.17;22.20;;;15.90;99.90;;;;;;5051184;28;20410;-68
2023/09/27 03:52:07;;;;;;;29.20;24.13;;;15.90;99.90;;;;;;5051342;28;20444;-69
2023/09/27 03:54:32;;;;;;;25.90;21.93;;;15.90;99.90;;;;;;5050974;28;20780;-68
2023/09/27 03:56:58;;;;;;;27.57;21.03;;;15.90;99.90;;;;;;5051009;28;20517;-68
2023/09/27 03:59:24;;;;;;;27.20;20.90;;;15.90;99.90;;;;;;5051204;28;20196;-68
2023/09/27 04:01:51;;;;;;;26.37;22.60;;;15.80;99.90;;;;;;5050755;28;20451;-68
2023/09/27 04:04:17;;;;;;;25.60;21.00;;;15.80;99.90;;;;;;5051295;28;20170;-69
2023/09/27 04:06:43;;;;;;;30.77;23.60;;;15.80;99.90;;;;;;5050995;28;20455;-68
2023/09/27 04:09:09;;;;;;;27.47;22.83;;;15.80;99.90;;;;;;5051086;28;20425;-68
2023/09/27 04:11:35;;;;;;;30.10;21.63;;;15.80;99.90;;;;;;5050933;28;20207;-68
2023/09/27 04:14:01;;;;;;;32.90;23.57;;;15.80;99.90;;;;;;5092306;22;20486;-73
2023/09/27 04:16:30;;;;;;;26.57;21.53;;;15.80;99.90;;;;;;5095640;28;20418;-72
2023/09/27 04:18:57;;;;;;;28.23;22.67;;;15.70;99.90;;;;;;5095679;28;20174;-73
2023/09/27 04:21:23;;;;;;;31.30;23.10;;;15.70;99.90;;;;;;5095364;28;20419;-73
2023/09/27 04:23:56;;;;;;;26.73;21.43;;;15.70;99.90;;;;;;5095476;28;20440;-73
2023/09/27 04:26:26;;;;;;;25.17;20.93;;;15.70;99.90;;;;;;5095282;28;20507;-73
2023/09/27 04:28:53;;;;;;;30.03;24.20;;;15.70;99.90;;;;;;5095272;28;20413;-73
2023/09/27 04:31:19;;;;;;;25.00;22.30;;;15.70;99.90;;;;;;5095238;28;20411;-72
2023/09/27 04:33:47;;;;;;;26.13;22.63;;;15.70;99.90;;;;;;5095152;28;20961;-73
2023/09/27 04:36:16;;;;;;;26.70;21.17;;;15.70;99.90;;;;;;5095053;28;20433;-73
2023/09/27 04:38:44;;;;;;;30.03;22.50;;;15.70;99.90;;;;;;5095069;28;20425;-72
2023/09/27 04:41:09;;;;;;;26.40;20.97;;;15.60;99.90;;;;;;5095056;28;21031;-72
2023/09/27 04:43:35;;;;;;;24.03;21.43;;;15.60;99.90;;;;;;5094882;28;20437;-72
2023/09/27 04:46:01;;;;;;;27.10;22.40;;;15.60;99.90;;;;;;5076681;28;20209;-73
2023/09/27 04:48:26;;;;;;;24.40;21.13;;;15.60;99.90;;;;;;5094965;28;20534;-72
2023/09/27 04:50:53;;;;;;;25.40;20.07;;;15.60;99.90;;;;;;5094939;28;20851;-74
2023/09/27 04:53:19;;;;;;;27.23;21.10;;;15.50;99.90;;;;;;5094589;28;20462;-73
2023/09/27 04:55:45;;;;;;;26.57;20.50;;;15.50;99.90;;;;;;5095029;28;20187;-74
2023/09/27 04:58:10;;;;;;;27.57;20.60;;;15.50;99.90;;;;;;5094971;28;20550;-73
2023/09/27 05:00:36;;;;;;;29.00;21.87;;;15.50;99.90;;;;;;5094677;28;20823;-73
2023/09/27 05:03:02;;;;;;;30.40;21.10;;;15.50;99.90;;;;;;5094547;28;20200;-73
2023/09/27 05:05:28;;;;;;;27.63;20.80;;;15.50;99.90;;;;;;5094561;28;20192;-73
2023/09/27 05:07:53;;;;;;;24.00;19.60;;;15.50;99.90;;;;;;5076530;28;20421;-72
2023/09/27 05:10:19;;;;;;;21.47;18.77;;;15.50;99.90;;;;;;5094680;28;20172;-72
2023/09/27 05:12:45;;;;;;;23.80;19.40;;;15.50;99.90;;;;;;5094170;28;20203;-72
2023/09/27 05:15:10;;;;;;;25.00;20.20;;;15.50;99.90;;;;;;5070104;28;20181;-72
2023/09/27 05:17:36;;;;;;;28.67;20.63;;;15.50;99.90;;;;;;5074617;28;20182;-73
2023/09/27 05:20:06;;;;;;;23.67;21.17;;;15.50;99.90;;;;;;5086653;28;20631;-73
2023/09/27 05:22:33;;;;;;;25.20;21.10;;;15.50;99.90;;;;;;5087640;28;20219;-73
2023/09/27 05:24:59;;;;;;;26.27;20.70;;;15.50;99.90;;;;;;5073557;28;21081;-73
2023/09/27 05:27:24;;;;;;;24.53;19.50;;;15.50;99.90;;;;;;5073938;28;20408;-75
2023/09/27 05:29:50;;;;;;;22.53;19.50;;;15.60;99.90;;;;;;5074063;28;20199;-73
2023/09/27 05:32:16;;;;;;;28.40;21.40;;;15.60;99.90;;;;;;5076887;28;20249;-73
2023/09/27 05:34:41;;;;;;;24.97;21.93;;;15.70;99.90;;;;;;5094399;28;20188;-72
2023/09/27 05:37:07;;;;;;;22.47;20.07;;;15.70;99.90;;;;;;5094111;28;20184;-74
2023/09/27 05:39:32;;;;;;;23.60;21.10;;;15.70;99.90;;;;;;5094261;28;20535;-73
2023/09/27 05:41:58;;;;;;;24.00;20.20;;;15.80;99.90;;;;;;5093999;28;20172;-74
2023/09/27 05:44:24;;;;;;;27.73;21.57;;;15.80;99.90;;;;;;5093911;28;20203;-72
2023/09/27 05:46:49;;;;;;;32.10;22.57;;;15.80;99.90;;;;;;5093609;28;20203;-72
2023/09/27 05:49:16;;;;;;;22.50;18.30;;;15.90;99.90;;;;;;5077732;28;20222;-73
2023/09/27 05:51:43;;;;;;;25.33;20.80;;;15.90;99.90;;;;;;5073346;28;20631;-73
2023/09/27 05:54:09;;;;;;;23.93;19.97;;;15.90;99.90;;;;;;5073239;28;20434;-72
2023/09/27 05:56:37;;;;;;;27.43;18.83;;;15.90;99.90;;;;;;5073315;28;20947;-73
2023/09/27 05:59:08;;;;;;;32.10;22.90;;;15.90;99.90;;;;;;5073369;28;20181;-73
2023/09/27 06:01:34;;;;;;;24.67;20.27;;;16.00;99.90;;;;;;5073399;28;20418;-73
2023/09/27 06:04:01;;;;;;;21.63;19.03;;;16.20;99.90;;;;;;5073051;28;20501;-73
2023/09/27 06:06:27;;;;;;;22.70;18.53;;;16.30;99.90;;;;;;5073413;28;20466;-73
2023/09/27 06:08:52;;;;;;;22.60;17.73;;;16.40;99.90;;;;;;5073360;28;20430;-73
2023/09/27 06:11:18;;;;;;;21.20;18.07;;;16.60;99.90;;;;;;5073218;28;20170;-73
2023/09/27 06:13:44;;;;;;;26.50;16.97;;;17.10;99.90;;;;;;5072808;28;20634;-74
2023/09/27 06:16:14;;;;;;;25.80;17.30;;;17.40;99.90;;;;;;5073176;28;20259;-75
2023/09/27 06:18:40;;;;;;;23.40;16.30;;;17.60;99.90;;;;;;5073089;28;20836;-74
2023/09/27 06:21:05;;;;;;;19.40;16.47;;;17.70;99.90;;;;;;5073242;28;20485;-72
2023/09/27 06:23:31;;;;;;;22.70;16.13;;;17.60;99.90;;;;;;5072849;28;20217;-72
2023/09/27 06:25:56;;;;;;;18.90;16.57;;;17.60;99.90;;;;;;5073128;28;20288;-72
2023/09/27 06:28:22;;;;;;;14.07;12.67;;;17.90;99.90;;;;;;5073034;28;20179;-71
2023/09/27 06:30:48;;;;;;;18.60;15.37;;;18.50;99.90;;;;;;5073192;28;20704;-75
2023/09/27 06:33:14;;;;;;;21.20;14.13;;;18.80;99.90;;;;;;5072589;28;20502;-72
2023/09/27 06:35:40;;;;;;;17.60;14.47;;;19.00;99.90;;;;;;5073153;28;20177;-71
2023/09/27 06:38:05;;;;;;;21.83;15.73;;;19.10;99.90;;;;;;5072356;28;20576;-73
2023/09/27 06:40:32;;;;;;;17.10;14.23;;;19.10;99.90;;;;;;5072832;28;20476;-71
2023/09/27 06:42:57;;;;;;;20.57;15.00;;;19.10;99.90;;;;;;5073139;28;20204;-71
2023/09/27 06:45:23;;;;;;;17.80;15.00;;;19.40;99.90;;;;;;5073164;28;20457;-72
2023/09/27 06:47:49;;;;;;;17.43;14.43;;;20.30;99.90;;;;;;5072888;28;20164;-71
2023/09/27 06:50:17;;;;;;;14.70;13.20;;;20.30;99.90;;;;;;5072654;28;20431;-71
2023/09/27 06:52:45;;;;;;;22.50;15.97;;;20.50;99.90;;;;;;5072609;28;20188;-69
2023/09/27 06:55:12;;;;;;;17.07;14.67;;;20.50;99.90;;;;;;5072495;28;20414;-71
2023/09/27 06:57:44;;;;;;;16.20;14.20;;;20.80;99.90;;;;;;5073137;28;20421;-72
2023/09/27 07:00:18;;;;;;;15.80;13.67;;;21.20;99.90;;;;;;5072196;28;20424;-72
2023/09/27 07:02:47;;;;;;;15.70;14.00;;;20.70;99.90;;;;;;5072194;28;20941;-72
2023/09/27 07:05:13;;;;;;;17.03;14.77;;;20.80;99.90;;;;;;5072090;28;20462;-72
2023/09/27 07:07:39;;;;;;;17.80;13.70;;;21.30;99.90;;;;;;5072472;28;20414;-71
2023/09/27 07:10:06;;;;;;;20.43;13.07;;;21.30;99.90;;;;;;5072264;28;20200;-72
2023/09/27 07:12:33;;;;;;;18.80;14.07;;;21.20;99.90;;;;;;5071726;28;20460;-72
2023/09/27 07:14:59;;;;;;;17.40;14.50;;;21.20;99.90;;;;;;5071930;28;20642;-71
2023/09/27 07:17:25;;;;;;;16.73;14.47;;;21.10;99.90;;;;;;5072182;28;20418;-71
2023/09/27 07:19:52;;;;;;;16.27;14.20;;;21.30;99.90;;;;;;5072118;28;20542;-71
2023/09/27 07:22:19;;;;;;;16.47;13.07;;;21.90;99.90;;;;;;5067708;28;20167;-73
2023/09/27 07:24:44;;;;;;;16.53;13.87;;;22.70;99.90;;;;;;5093243;28;20411;-71
2023/09/27 07:27:10;;;;;;;16.67;14.10;;;22.20;99.90;;;;;;5095274;28;20407;-72
2023/09/27 07:29:35;;;;;;;16.43;13.63;;;22.60;99.90;;;;;;5094712;28;20170;-72
2023/09/27 07:32:01;;;;;;;15.40;13.97;;;23.10;99.90;;;;;;5092136;28;20582;-71
2023/09/27 07:34:27;;;;;;;14.77;13.37;;;23.30;99.90;;;;;;5073744;28;20281;-72
2023/09/27 07:36:53;;;;;;;19.37;17.47;;;23.10;99.90;;;;;;5092095;28;20443;-71
2023/09/27 07:39:20;;;;;;;18.50;13.47;;;23.80;99.90;;;;;;5091922;28;20173;-73
2023/09/27 07:41:46;;;;;;;14.90;12.70;;;23.50;99.90;;;;;;5091898;28;20411;-72
2023/09/27 07:44:12;;;;;;;13.53;12.13;;;23.20;99.90;;;;;;5091963;28;20442;-71
2023/09/27 07:46:38;;;;;;;14.97;13.30;;;23.20;99.90;;;;;;5091725;28;20193;-72
2023/09/27 07:49:03;;;;;;;16.20;13.80;;;23.10;99.90;;;;;;5091709;28;20418;-71
2023/09/27 07:51:29;;;;;;;14.10;12.77;;;22.90;99.90;;;;;;5091828;28;20244;-72
2023/09/27 07:53:55;;;;;;;14.77;13.17;;;23.00;99.90;;;;;;5091739;28;20276;-70
2023/09/27 07:56:29;;;;;;;17.53;12.57;;;23.40;99.90;;;;;;5091518;28;20545;-71
2023/09/27 07:58:54;;;;;;;17.63;12.33;;;23.20;99.90;;;;;;5092142;28;20170;-71
2023/09/27 08:01:21;;;;;;;15.80;14.03;;;24.10;99.90;;;;;;5069678;28;20412;-71
2023/09/27 08:03:49;;;;;;;15.20;13.70;;;24.40;99.90;;;;;;5071672;28;20213;-71
2023/09/27 08:06:16;;;;;;;16.43;15.00;;;24.30;99.90;;;;;;5071319;28;20448;-71
2023/09/27 08:08:42;;;;;;;16.90;13.53;;;23.70;99.90;;;;;;5071502;28;20902;-76
2023/09/27 08:11:11;;;;;;;15.33;13.67;;;24.10;99.90;;;;;;5071225;28;20431;-71
2023/09/27 08:13:37;;;;;;;15.03;13.43;;;24.90;99.90;;;;;;5074413;28;20855;-70
2023/09/27 08:16:06;;;;;;;15.17;13.47;;;24.90;99.90;;;;;;5091801;28;20407;-71
2023/09/27 08:18:33;;;;;;;15.50;13.47;;;24.70;99.90;;;;;;5092556;28;20177;-72
2023/09/27 08:20:59;;;;;;;19.00;14.87;;;25.00;99.90;;;;;;5091667;28;20455;-72
2023/09/27 08:23:25;;;;;;;16.60;14.17;;;24.10;99.90;;;;;;5075246;28;20474;-72
2023/09/27 08:25:52;;;;;;;16.27;14.27;;;24.60;99.90;;;;;;5071277;28;20491;-72
2023/09/27 08:28:17;;;;;;;16.83;14.67;;;24.70;99.90;;;;;;5071420;28;20169;-72
2023/09/27 08:30:43;;;;;;;16.10;14.53;;;25.70;99.90;;;;;;5071392;28;20496;-71
2023/09/27 08:33:09;;;;;;;14.70;13.20;;;25.10;99.90;;;;;;5071450;28;20255;-72
2023/09/27 08:35:34;;;;;;;14.53;12.90;;;27.00;99.90;;;;;;5071388;28;20720;-72
2023/09/27 08:38:00;;;;;;;13.87;12.47;;;28.30;99.90;;;;;;5071314;28;20235;-71
2023/09/27 08:40:25;;;;;;;14.27;11.73;;;26.50;99.90;;;;;;5071251;28;20203;-71
2023/09/27 08:42:57;;;;;;;17.97;15.80;;;27.70;99.90;;;;;;5071241;28;20194;-71
2023/09/27 08:45:24;;;;;;;13.37;11.47;;;28.10;99.90;;;;;;5071440;28;20564;-71
2023/09/27 08:47:50;;;;;;;12.80;11.43;;;27.60;99.90;;;;;;5071623;28;20811;-72
2023/09/27 08:50:18;;;;;;;11.60;10.50;;;27.10;99.90;;;;;;5071693;28;20407;-71
2023/09/27 08:52:51;;;;;;;12.20;11.10;;;27.00;99.90;;;;;;5072163;28;20439;-72
2023/09/27 08:55:17;;;;;;;11.77;10.60;;;26.50;99.90;;;;;;5071279;28;20411;-71
2023/09/27 08:57:51;;;;;;;11.33;10.23;;;26.90;99.90;;;;;;5071434;28;20428;-72
2023/09/27 09:00:22;;;;;;;16.43;13.13;;;26.50;99.90;;;;;;5064857;28;20397;-72
2023/09/27 09:02:50;;;;;;;14.07;12.20;;;27.00;99.90;;;;;;5080064;28;20422;-71
2023/09/27 09:05:18;;;;;;;12.57;11.40;;;27.00;99.90;;;;;;5095675;28;20450;-71
2023/09/27 09:07:43;;;;;;;10.33;9.20;;;27.40;99.90;;;;;;5095134;28;20453;-72
2023/09/27 09:10:13;;;;;;;10.60;9.70;;;27.80;99.90;;;;;;5094767;28;20411;-72
2023/09/27 09:12:41;;;;;;;15.40;11.97;;;28.50;99.90;;;;;;5094587;28;20274;-72
2023/09/27 09:15:14;;;;;;;12.83;11.10;;;28.00;99.90;;;;;;5094955;28;20407;-71
2023/09/27 09:17:47;;;;;;;11.70;10.53;;;28.60;99.90;;;;;;5094389;28;20446;-71
2023/09/27 09:20:21;;;;;;;15.23;10.40;;;27.00;99.90;;;;;;5094655;28;20416;-71
2023/09/27 09:22:47;;;;;;;15.83;14.30;;;26.90;99.90;;;;;;5083944;28;20428;-71
2023/09/27 09:25:13;;;;;;;11.20;10.00;;;26.60;99.90;;;;;;5074301;28;20463;-71
2023/09/27 09:27:39;;;;;;;9.80;9.00;;;27.20;99.90;;;;;;5074255;28;20950;-72
2023/09/27 09:30:11;;;;;;;11.10;8.50;;;25.90;99.90;;;;;;5074016;28;20412;-73
2023/09/27 09:32:49;;;;;;;10.30;7.40;;;26.80;99.90;;;;;;5055844;28;20250;-72
2023/09/27 09:35:31;;;;;;;12.00;8.33;;;26.10;99.90;;;;;;5073808;28;20790;-73
2023/09/27 09:37:58;;;;;;;8.60;7.77;;;26.00;99.90;;;;;;5074148;28;20898;-73
2023/09/27 09:40:24;;;;;;;9.00;7.53;;;26.00;99.90;;;;;;5073647;28;20439;-73
2023/09/27 09:42:50;;;;;;;7.80;7.07;;;26.00;99.90;;;;;;5073448;28;20431;-72
2023/09/27 09:45:16;;;;;;;8.77;7.97;;;25.60;99.90;;;;;;5073589;28;20452;-71
2023/09/27 09:47:44;;;;;;;16.93;15.43;;;26.20;99.90;;;;;;5073481;28;20451;-72
2023/09/27 09:50:16;;;;;;;9.00;8.10;;;25.80;99.90;;;;;;5073640;28;20436;-73
2023/09/27 09:52:57;;;;;;;8.77;7.87;;;25.70;99.90;;;;;;5073485;28;20451;-72
2023/09/27 09:55:23;;;;;;;8.43;7.60;;;25.60;99.90;;;;;;5073216;28;20474;-73
2023/09/27 09:58:03;;;;;;;8.37;7.40;;;25.40;99.90;;;;;;5073661;28;20458;-73
2023/09/27 10:00:30;;;;;;;9.60;8.80;;;25.40;99.90;;;;;;5073270;28;20440;-73
2023/09/27 10:03:07;;;;;;;9.37;7.40;;;25.80;99.90;;;;;;5073203;28;20432;-72
2023/09/27 10:05:39;;;;;;;11.23;7.53;;;25.80;99.90;;;;;;5073167;28;20448;-72
2023/09/27 10:08:08;;;;;;;13.43;12.03;;;25.50;99.90;;;;;;5073408;28;20409;-72
2023/09/27 10:10:35;;;;;;;9.67;8.03;;;25.50;99.90;;;;;;5073036;28;20914;-73
2023/09/27 10:13:04;;;;;;;10.93;9.20;;;25.20;99.90;;;;;;5095066;22;21722;-71
2023/09/27 10:15:33;;;;;;;7.80;6.80;;;24.80;99.90;;;;;;5071883;28;20427;-72
2023/09/27 10:18:23;;;;;;;8.43;6.03;;;25.10;99.90;;;;;;5054578;28;20412;-72
2023/09/27 10:21:01;;;;;;;6.97;6.27;;;24.80;99.90;;;;;;5071913;28;20414;-71
2023/09/27 10:23:26;;;;;;;8.13;5.87;;;24.90;99.90;;;;;;5081190;28;20431;-71
2023/09/27 10:25:52;;;;;;;7.77;6.60;;;24.90;99.90;;;;;;5092316;28;20477;-71
2023/09/27 10:28:18;;;;;;;9.47;7.33;;;24.80;99.90;;;;;;5092252;28;20160;-72
2023/09/27 10:30:48;;;;;;;8.70;7.60;;;24.80;99.90;;;;;;5091973;28;20202;-71
2023/09/27 10:33:20;;;;;;;8.87;7.40;;;25.00;99.90;;;;;;5092348;28;20191;-71
2023/09/27 10:35:47;;;;;;;11.57;6.10;;;24.90;99.90;;;;;;5091862;28;20502;-71
2023/09/27 10:38:13;;;;;;;8.07;7.27;;;25.10;99.90;;;;;;5078129;28;20415;-71
2023/09/27 10:40:46;;;;;;;9.60;8.80;;;24.80;99.90;;;;;;5090492;28;20468;-70
2023/09/27 10:43:40;;;;;;;9.00;8.10;;;24.80;99.90;;;;;;5091527;28;20433;-72
2023/09/27 10:46:07;;;;;;;12.10;10.67;;;24.90;99.90;;;;;;5091661;28;20486;-71
2023/09/27 10:48:42;;;;;;;11.33;8.10;;;24.90;99.90;;;;;;5091705;28;20476;-72
2023/09/27 10:51:08;;;;;;;8.73;7.33;;;24.70;99.90;;;;;;5091683;28;20406;-71
2023/09/27 10:53:34;;;;;;;14.13;12.70;;;24.80;99.90;;;;;;5091771;28;20928;-71
2023/09/27 10:56:00;;;;;;;9.00;8.07;;;25.10;99.90;;;;;;5091697;28;20508;-70
2023/09/27 10:58:27;;;;;;;8.00;7.00;;;25.00;99.90;;;;;;5091578;28;20185;-71
2023/09/27 11:00:57;;;;;;;7.63;6.93;;;25.00;99.90;;;;;;5091686;28;20412;-71
2023/09/27 11:03:29;;;;;;;10.77;6.60;;;25.10;99.90;;;;;;5091460;28;20433;-71
2023/09/27 11:05:55;;;;;;;8.33;7.60;;;25.40;99.90;;;;;;5091323;28;20523;-72
2023/09/27 11:08:25;;;;;;;8.57;7.50;;;25.40;99.90;;;;;;5091430;28;20474;-72
2023/09/27 11:10:52;;;;;;;6.43;5.43;;;25.20;99.90;;;;;;5091391;28;20439;-71
2023/09/27 11:13:19;;;;;;;7.57;6.87;;;25.40;99.90;;;;;;5090884;28;20488;-71
2023/09/27 11:15:45;;;;;;;9.40;6.03;;;25.40;99.90;;;;;;5076391;28;20414;-71
2023/09/27 11:18:11;;;;;;;9.20;6.23;;;25.40;99.90;;;;;;5071610;28;20774;-70
2023/09/27 11:20:38;;;;;;;6.87;6.27;;;25.20;99.90;;;;;;5071547;28;20419;-71
2023/09/27 11:23:04;;;;;;;7.50;6.00;;;25.40;99.90;;;;;;5078545;28;20525;-71
2023/09/27 11:25:34;;;;;;;5.83;5.33;;;25.40;99.90;;;;;;5092109;28;20520;-72
2023/09/27 11:28:01;;;;;;;6.73;5.73;;;25.40;99.90;;;;;;5091196;28;20164;-71
2023/09/27 11:30:34;;;;;;;10.80;6.30;;;25.40;99.90;;;;;;5090738;28;20619;-71
2023/09/27 11:33:04;;;;;;;7.60;5.97;;;25.70;99.90;;;;;;5090825;28;20773;-71
2023/09/27 11:35:30;;;;;;;6.40;5.80;;;25.60;99.90;;;;;;5091170;28;20485;-72
2023/09/27 11:38:12;;;;;;;9.93;5.10;;;25.80;99.90;;;;;;5090935;28;20461;-71
2023/09/27 11:40:40;;;;;;;6.20;5.70;;;25.70;99.90;;;;;;5091115;28;20187;-70
2023/09/27 11:43:06;;;;;;;7.33;5.27;;;25.80;99.90;;;;;;5091236;28;20463;-74
2023/09/27 11:45:45;;;;;;;6.70;5.80;;;25.80;99.90;;;;;;5090558;28;20489;-72
2023/09/27 11:48:12;;;;;;;6.23;5.63;;;25.80;99.90;;;;;;5091005;28;20581;-72
2023/09/27 11:50:37;;;;;;;5.70;5.20;;;25.80;99.90;;;;;;5090484;28;20510;-72
2023/09/27 11:53:04;;;;;;;7.00;5.47;;;25.90;99.90;;;;;;5090622;28;20501;-71
2023/09/27 11:55:30;;;;;;;9.40;6.53;;;26.00;99.90;;;;;;5090547;28;20177;-72
2023/09/27 11:57:59;;;;;;;8.10;5.37;;;25.90;99.90;;;;;;5090438;28;20410;-72
2023/09/27 12:00:25;;;;;;;5.33;4.90;;;25.90;99.90;;;;;;5090803;28;20164;-72
2023/09/27 12:02:52;;;;;;;7.70;5.57;;;25.80;99.90;;;;;;5090071;28;20920;-71
2023/09/27 12:05:17;;;;;;;7.30;5.17;;;26.00;99.90;;;;;;5090769;28;20824;-71
2023/09/27 12:07:44;;;;;;;9.23;6.30;;;25.90;99.90;;;;;;5090737;28;20422;-71
2023/09/27 12:10:10;;;;;;;6.83;5.40;;;26.00;99.90;;;;;;5090666;28;20612;-72
2023/09/27 12:12:37;;;;;;;5.93;5.30;;;26.10;99.90;;;;;;5090091;28;20464;-71
2023/09/27 12:15:03;;;;;;;5.93;4.47;;;25.90;99.90;;;;;;5087287;28;20418;-71
2023/09/27 12:17:30;;;;;;;5.77;5.17;;;25.80;99.90;;;;;;5069973;28;20403;-71
2023/09/27 12:19:56;;;;;;;5.43;5.03;;;26.10;99.90;;;;;;5070093;28;20989;-72
2023/09/27 12:22:24;;;;;;;6.00;5.50;;;26.10;99.90;;;;;;5069847;28;20461;-71
2023/09/27 12:24:50;;;;;;;5.43;4.80;;;25.90;99.90;;;;;;5089562;28;20506;-71
2023/09/27 12:27:16;;;;;;;5.57;5.00;;;25.90;99.90;;;;;;5090195;28;20601;-72
2023/09/27 12:29:41;;;;;;;5.67;5.17;;;26.00;99.90;;;;;;5089964;28;20399;-72